Flight Track Log - Related Links

Times and Time Zones

All times are in EDT time to prevent confusion due to time zone crossing. See the THA710 flight status page for this flight to view local times or setup timezone preferences in your user account.

Time Position Orientation Groundspeed Altitude Reporting Facility
EDT Latitude Longitude Course Direction KTS MPH feet Rate Location/Type
Sun 08:23:02 PM 13.6590 100.7520 194° South 175 201 700  Level FlightAware ADS-B
Sun 08:23:27 PM 13.6390 100.7430 204° Southwest 169 194 2,000 2,267 Climbing FlightAware ADS-B
Sun 08:23:47 PM 13.6350 100.7310 251° West 180 207 2,400 1,600 Climbing FlightAware ADS-B
Sun 08:24:27 PM 13.6510 100.6960 295° West 207 238 3,600 1,733 Climbing FlightAware ADS-B
Sun 08:24:32 PM 13.6560 100.6930 330° Northwest 218 251 3,700 1,050 Climbing FlightAware ADS-B
Sun 08:25:07 PM 13.6900 100.6790 338° Northwest 268 308 4,300 1,200 Climbing FlightAware ADS-B
Sun 08:25:22 PM 13.7120 100.6700 338° Northwest 294 338 4,700 1,543 Climbing FlightAware ADS-B
Sun 08:25:42 PM 13.7410 100.6590 340° North 325 374 5,200 1,200 Climbing FlightAware ADS-B
Sun 08:26:17 PM 13.7920 100.6380 338° Northwest 373 429 5,800 1,200 Climbing FlightAware ADS-B
Sun 08:26:32 PM 13.8140 100.6260 332° Northwest 384 442 6,200 1,800 Climbing FlightAware ADS-B
Sun 08:26:47 PM 13.8340 100.6060 316° Northwest 391 450 6,700 1,950 Climbing FlightAware ADS-B
Sun 08:27:12 PM 13.8590 100.5740 309° West 392 451 7,500 2,291 Climbing FlightAware ADS-B
Sun 08:27:42 PM 13.8970 100.5250 309° West 399 459 8,800 2,486 Climbing FlightAware ADS-B
Sun 08:28:22 PM 13.9490 100.4640 311° West 409 471 10,400 2,325 Climbing FlightAware ADS-B
Sun 08:29:02 PM 14.0160 100.4370 339° North 410 472 11,900 2,160 Climbing FlightAware ADS-B
Sun 08:29:37 PM 14.0810 100.4180 344° North 417 480 13,100 2,047 Climbing FlightAware ADS-B
Sun 08:30:27 PM 14.1720 100.3900 343° North 420 483 14,800 1,958 Climbing FlightAware ADS-B
Sun 08:31:12 PM 14.2590 100.3640 344° North 427 491 16,200 1,725 Climbing FlightAware ADS-B
Sun 08:31:47 PM 14.3270 100.3370 339° North 438 504 17,100 1,482 Climbing FlightAware ADS-B
Sun 08:32:37 PM 14.4200 100.3010 339° North 447 514 18,300 1,467 Climbing FlightAware ADS-B
Sun 08:33:17 PM 14.5010 100.2700 340° North 456 525 19,300 1,425 Climbing FlightAware ADS-B
Sun 08:33:57 PM 14.5720 100.2420 339° North 459 528 20,200 1,059 Climbing FlightAware ADS-B
Sun 08:34:42 PM 14.6560 100.2090 339° North 474 545 20,800 1,260 Climbing FlightAware ADS-B
Sun 08:35:37 PM 14.7820 100.1620 340° North 474 545 22,300 1,320 Climbing FlightAware ADS-B
Sun 08:36:22 PM 14.8750 100.1280 341° North 480 552 23,000 960 Climbing FlightAware ADS-B
Sun 08:37:17 PM 14.9970 100.0840 341° North 487 560 23,900 1,011 Climbing FlightAware ADS-B
Sun 08:37:57 PM 15.0760 100.0550 340° North 487 560 24,600 847 Climbing FlightAware ADS-B
Sun 08:38:42 PM 15.1800 100.0160 340° North 495 570 25,100 720 Climbing FlightAware ADS-B
Sun 08:39:12 PM 15.2460 99.9920 341° North 496 571 25,500 750 Climbing FlightAware ADS-B
Sun 08:40:02 PM 15.3470 99.9540 340° North 499 574 26,100 821 Climbing FlightAware ADS-B
Sun 08:40:47 PM 15.4490 99.9180 341° North 498 573 26,800 667 Climbing FlightAware ADS-B
Sun 08:41:32 PM 15.5390 99.8840 340° North 495 570 27,100 635 Climbing FlightAware ADS-B
Sun 08:42:12 PM 15.6310 99.8510 341° North 501 577 27,700 202 Climbing FlightAware ADS-B
Sun 08:44:00 PM 15.8175 99.7990 345° North  Level Estimated
Sun 08:44:30 PM 15.8940 99.7520 345° North 501 577 27,700  Level FlightAware ADS-B
Sun 08:45:10 PM 15.9680 99.7240 340° North 501 577 27,700  Level FlightAware ADS-B
Sun 08:45:50 PM 16.0420 99.6950 339° North 501 577 27,700 2,960 Level FlightAware ADS-B
Sun 08:46:25 PM 16.1610 99.6550 342° North 493 567 31,400 3,225 Climbing FlightAware ADS-B
Sun 08:47:10 PM 16.2780 99.6140 341° North 488 562 32,000 379 Climbing FlightAware ADS-B
Sun 08:48:00 PM 16.4000 99.5700 341° North 493 567 32,000  Level FlightAware ADS-B
Sun 08:48:40 PM 16.4680 99.5450 341° North 493 567 32,000  Level FlightAware ADS-B
Sun 08:49:30 PM 16.5790 99.5050 341° North 494 568 32,000  Level FlightAware ADS-B
Sun 08:50:20 PM 16.6700 99.4700 340° North 494 568 32,000  Level FlightAware ADS-B
Sun 08:51:00 PM 16.7430 99.4430 340° North 494 568 32,000  Level FlightAware ADS-B
Sun 08:51:50 PM 16.8850 99.3980 343° North 499 574 32,000  Level FlightAware ADS-B
Sun 08:52:40 PM 16.9780 99.3650 341° North 499 574 32,000  Level FlightAware ADS-B
Sun 08:53:20 PM 17.0520 99.3380 341° North 499 574 32,000  Level FlightAware ADS-B
Sun 08:53:50 PM 17.1080 99.3180 341° North 499 574 32,000  Level FlightAware ADS-B
Sun 08:54:30 PM 17.1820 99.2910 341° North 499 574 32,000  Level FlightAware ADS-B
Sun 08:55:10 PM 17.2560 99.2640 341° North 499 574 32,000  Level FlightAware ADS-B
Sun 08:55:50 PM 17.3300 99.2370 341° North 499 574 32,000  Level FlightAware ADS-B
Sun 08:56:30 PM 17.4040 99.2110 341° North 499 574 32,000  Level FlightAware ADS-B
Sun 08:57:20 PM 17.4970 99.1770 341° North 499 574 32,000  Level FlightAware ADS-B
Sun 08:58:00 PM 17.5710 99.1500 341° North 499 574 32,000  Level FlightAware ADS-B
Sun 08:58:40 PM 17.6460 99.1240 342° North 499 574 32,000  Level FlightAware ADS-B
Sun 08:59:20 PM 17.7200 99.0970 341° North 499 574 32,000  Level FlightAware ADS-B
Sun 09:00:10 PM 17.8130 99.0630 341° North 499 574 32,000  Level FlightAware ADS-B
Sun 09:00:50 PM 17.8870 99.0360 341° North 499 574 32,000  Level FlightAware ADS-B
Sun 09:01:20 PM 17.9420 99.0160 341° North 499 574 32,000 -5,229 Level FlightAware ADS-B
Sun 09:04:00 PM 18.2275 98.9976 356° North  Level Estimated
Sun 09:05:00 PM 18.3346 98.9907 356° North  Level Estimated
Sun 09:05:30 PM 18.3780 98.9620 356° North 322 371 7,600  Level FlightAware ADS-B
Sun 09:05:55 PM 18.4220 98.9620 360° North 288 331 7,100 -1,309 Descending FlightAware ADS-B
Sun 09:06:25 PM 18.4610 98.9620 360° North 268 308 6,400 -1,440 Descending FlightAware ADS-B
Sun 09:06:45 PM 18.4840 98.9620 360° North 263 303 5,900 -1,385 Descending FlightAware ADS-B
Sun 09:07:30 PM 18.5370 98.9620 360° North 251 289 4,900 -1,292 Descending FlightAware ADS-B
Sun 09:07:50 PM 18.5620 98.9620 360° North 241 277 4,500 -1,200 Descending FlightAware ADS-B
Sun 09:08:20 PM 18.5930 98.9620 360° North 233 268 3,900 -1,200 Descending FlightAware ADS-B
Sun 09:08:45 PM 18.6170 98.9630 North 230 265 3,400 -960 Descending FlightAware ADS-B
Sun 09:09:10 PM 18.6350 98.9630 360° North 230 265 3,100 -360 Descending FlightAware ADS-B
Sun 09:09:35 PM 18.6620 98.9600 354° North 230 265 3,100 -738 Level FlightAware ADS-B
Sun 09:10:15 PM 18.6980 98.9710 16° North 184 212 2,300 -1,200 Descending FlightAware ADS-B
Sun 09:12:00 PM 18.7668 98.9626 353° North  Level Estimated
Sun 09:13:00 PM 18.7668 98.9626 128° Southeast  Level Estimated
Sun 09:14:00 PM 18.7668 98.9626 128° Southeast  Level Estimated
Sun 09:15:00 PM 18.7668 98.9626 128° Southeast  Level Estimated
Sun 09:16:00 PM 18.7668 98.9626 128° Southeast  Level Estimated
Sun 09:17:00 PM 18.7668 98.9626 128° Southeast  Level Estimated

Login

Don't have an account? Register now (free) for customized features, flight alerts, and more!